sensor_id;sensor_type;location;lat;lon;timestamp;P1;durP1;ratioP1;P2;durP2;ratioP2
23728;SDS011;12045;60.214;24.724;2022-12-18T00:03:52;5.63;;;2.73;;
23728;SDS011;12045;60.214;24.724;2022-12-18T00:06:20;10.43;;;3.50;;
23728;SDS011;12045;60.214;24.724;2022-12-18T00:08:49;7.17;;;3.37;;
23728;SDS011;12045;60.214;24.724;2022-12-18T00:11:17;7.13;;;2.87;;
23728;SDS011;12045;60.214;24.724;2022-12-18T00:13:47;6.33;;;2.53;;
23728;SDS011;12045;60.214;24.724;2022-12-18T00:16:17;6.87;;;2.90;;
23728;SDS011;12045;60.214;24.724;2022-12-18T00:18:48;7.17;;;3.40;;
23728;SDS011;12045;60.214;24.724;2022-12-18T00:21:16;8.00;;;3.00;;
23728;SDS011;12045;60.214;24.724;2022-12-18T00:23:46;5.07;;;2.57;;
23728;SDS011;12045;60.214;24.724;2022-12-18T00:26:15;5.57;;;2.93;;
23728;SDS011;12045;60.214;24.724;2022-12-18T00:28:45;9.13;;;3.57;;
23728;SDS011;12045;60.214;24.724;2022-12-18T00:31:14;5.77;;;3.07;;
23728;SDS011;12045;60.214;24.724;2022-12-18T00:33:44;3.50;;;1.20;;
23728;SDS011;12045;60.214;24.724;2022-12-18T00:36:16;5.23;;;2.67;;
23728;SDS011;12045;60.214;24.724;2022-12-18T00:38:45;8.17;;;2.20;;
23728;SDS011;12045;60.214;24.724;2022-12-18T00:41:14;4.67;;;2.67;;
23728;SDS011;12045;60.214;24.724;2022-12-18T00:44:06;7.30;;;3.23;;
23728;SDS011;12045;60.214;24.724;2022-12-18T00:46:36;5.83;;;2.40;;
23728;SDS011;12045;60.214;24.724;2022-12-18T00:49:04;4.70;;;2.37;;
23728;SDS011;12045;60.214;24.724;2022-12-18T00:51:32;6.23;;;3.20;;
23728;SDS011;12045;60.214;24.724;2022-12-18T00:53:59;6.33;;;3.00;;
23728;SDS011;12045;60.214;24.724;2022-12-18T00:56:27;7.67;;;2.60;;
23728;SDS011;12045;60.214;24.724;2022-12-18T00:58:56;4.90;;;1.77;;
23728;SDS011;12045;60.214;24.724;2022-12-18T01:01:23;6.50;;;2.87;;
23728;SDS011;12045;60.214;24.724;2022-12-18T01:03:50;8.37;;;3.57;;
23728;SDS011;12045;60.214;24.724;2022-12-18T01:06:18;3.33;;;2.23;;
23728;SDS011;12045;60.214;24.724;2022-12-18T01:08:45;8.97;;;3.50;;
23728;SDS011;12045;60.214;24.724;2022-12-18T01:11:14;8.10;;;2.90;;
23728;SDS011;12045;60.214;24.724;2022-12-18T01:13:43;6.47;;;2.47;;
23728;SDS011;12045;60.214;24.724;2022-12-18T01:16:12;6.40;;;2.83;;
23728;SDS011;12045;60.214;24.724;2022-12-18T01:18:41;8.97;;;3.27;;
23728;SDS011;12045;60.214;24.724;2022-12-18T01:21:10;7.70;;;3.47;;
23728;SDS011;12045;60.214;24.724;2022-12-18T01:23:39;3.10;;;1.80;;
23728;SDS011;12045;60.214;24.724;2022-12-18T01:26:08;6.47;;;3.00;;
23728;SDS011;12045;60.214;24.724;2022-12-18T01:28:38;7.77;;;3.67;;
23728;SDS011;12045;60.214;24.724;2022-12-18T01:33:48;4.73;;;3.13;;
23728;SDS011;12045;60.214;24.724;2022-12-18T01:36:18;9.80;;;3.00;;
23728;SDS011;12045;60.214;24.724;2022-12-18T01:38:48;8.87;;;3.70;;
23728;SDS011;12045;60.214;24.724;2022-12-18T01:41:18;5.10;;;2.80;;
23728;SDS011;12045;60.214;24.724;2022-12-18T01:43:54;9.80;;;3.73;;
23728;SDS011;12045;60.214;24.724;2022-12-18T01:46:25;11.30;;;3.87;;
23728;SDS011;12045;60.214;24.724;2022-12-18T01:48:54;6.23;;;2.87;;
23728;SDS011;12045;60.214;24.724;2022-12-18T01:51:24;7.93;;;3.57;;
23728;SDS011;12045;60.214;24.724;2022-12-18T01:53:53;10.67;;;3.70;;
23728;SDS011;12045;60.214;24.724;2022-12-18T01:56:21;5.90;;;3.17;;
23728;SDS011;12045;60.214;24.724;2022-12-18T01:59:00;6.87;;;3.27;;
23728;SDS011;12045;60.214;24.724;2022-12-18T02:01:30;6.47;;;2.83;;
23728;SDS011;12045;60.214;24.724;2022-12-18T02:06:45;7.53;;;2.57;;
23728;SDS011;12045;60.214;24.724;2022-12-18T02:09:24;6.83;;;3.10;;
23728;SDS011;12045;60.214;24.724;2022-12-18T02:12:11;10.13;;;3.50;;
23728;SDS011;12045;60.214;24.724;2022-12-18T02:17:47;6.83;;;3.17;;
23728;SDS011;12045;60.214;24.724;2022-12-18T02:20:53;6.83;;;3.00;;
23728;SDS011;12045;60.214;24.724;2022-12-18T02:26:41;6.83;;;3.30;;
23728;SDS011;12045;60.214;24.724;2022-12-18T02:29:22;9.23;;;3.90;;
23728;SDS011;12045;60.214;24.724;2022-12-18T02:31:55;8.20;;;2.97;;
23728;SDS011;12045;60.214;24.724;2022-12-18T02:34:31;7.77;;;2.97;;
23728;SDS011;12045;60.214;24.724;2022-12-18T02:37:02;9.93;;;3.90;;
23728;SDS011;12045;60.214;24.724;2022-12-18T02:39:32;8.67;;;3.27;;
23728;SDS011;12045;60.214;24.724;2022-12-18T02:42:02;9.13;;;3.23;;
23728;SDS011;12045;60.214;24.724;2022-12-18T02:44:35;6.40;;;2.80;;
23728;SDS011;12045;60.214;24.724;2022-12-18T02:47:10;8.00;;;3.03;;
23728;SDS011;12045;60.214;24.724;2022-12-18T02:57:53;6.20;;;2.90;;
23728;SDS011;12045;60.214;24.724;2022-12-18T03:03:30;7.73;;;3.23;;
23728;SDS011;12045;60.214;24.724;2022-12-18T03:06:24;8.80;;;3.23;;
23728;SDS011;12045;60.214;24.724;2022-12-18T03:08:58;7.13;;;3.27;;
23728;SDS011;12045;60.214;24.724;2022-12-18T03:11:38;9.97;;;3.80;;
23728;SDS011;12045;60.214;24.724;2022-12-18T03:14:27;8.93;;;3.60;;
23728;SDS011;12045;60.214;24.724;2022-12-18T03:17:00;8.10;;;2.97;;
23728;SDS011;12045;60.214;24.724;2022-12-18T03:19:31;9.30;;;3.70;;
23728;SDS011;12045;60.214;24.724;2022-12-18T03:22:00;10.53;;;3.33;;
23728;SDS011;12045;60.214;24.724;2022-12-18T03:24:29;8.13;;;2.77;;
23728;SDS011;12045;60.214;24.724;2022-12-18T03:27:01;11.67;;;3.73;;
23728;SDS011;12045;60.214;24.724;2022-12-18T03:29:34;10.50;;;3.77;;
23728;SDS011;12045;60.214;24.724;2022-12-18T03:32:11;10.00;;;3.57;;
23728;SDS011;12045;60.214;24.724;2022-12-18T03:34:43;9.77;;;3.50;;
23728;SDS011;12045;60.214;24.724;2022-12-18T03:37:14;8.07;;;3.23;;
23728;SDS011;12045;60.214;24.724;2022-12-18T03:39:41;13.20;;;3.53;;
23728;SDS011;12045;60.214;24.724;2022-12-18T03:45:31;2.77;;;1.03;;
23728;SDS011;12045;60.214;24.724;2022-12-18T03:56:00;7.60;;;2.87;;
23728;SDS011;12045;60.214;24.724;2022-12-18T03:58:29;10.40;;;3.37;;
23728;SDS011;12045;60.214;24.724;2022-12-18T04:01:02;7.37;;;3.47;;
23728;SDS011;12045;60.214;24.724;2022-12-18T04:03:33;8.93;;;3.30;;
23728;SDS011;12045;60.214;24.724;2022-12-18T04:06:02;11.87;;;3.60;;
23728;SDS011;12045;60.214;24.724;2022-12-18T04:08:31;8.20;;;2.87;;
23728;SDS011;12045;60.214;24.724;2022-12-18T04:11:00;7.20;;;2.63;;
23728;SDS011;12045;60.214;24.724;2022-12-18T04:13:30;9.10;;;2.70;;
23728;SDS011;12045;60.214;24.724;2022-12-18T04:16:00;7.83;;;3.17;;
23728;SDS011;12045;60.214;24.724;2022-12-18T04:18:28;7.57;;;3.27;;
23728;SDS011;12045;60.214;24.724;2022-12-18T04:20:56;10.20;;;3.47;;
23728;SDS011;12045;60.214;24.724;2022-12-18T04:23:23;9.10;;;2.43;;
23728;SDS011;12045;60.214;24.724;2022-12-18T04:25:51;8.10;;;3.43;;
23728;SDS011;12045;60.214;24.724;2022-12-18T04:28:18;9.37;;;3.20;;
23728;SDS011;12045;60.214;24.724;2022-12-18T04:30:49;11.20;;;3.57;;
23728;SDS011;12045;60.214;24.724;2022-12-18T04:33:18;10.13;;;3.23;;
23728;SDS011;12045;60.214;24.724;2022-12-18T04:35:45;13.03;;;3.90;;
23728;SDS011;12045;60.214;24.724;2022-12-18T04:38:13;11.10;;;3.60;;
23728;SDS011;12045;60.214;24.724;2022-12-18T04:40:41;11.10;;;3.63;;
23728;SDS011;12045;60.214;24.724;2022-12-18T04:43:10;11.97;;;3.10;;
23728;SDS011;12045;60.214;24.724;2022-12-18T04:45:38;12.37;;;3.60;;
23728;SDS011;12045;60.214;24.724;2022-12-18T04:48:06;11.43;;;3.60;;
23728;SDS011;12045;60.214;24.724;2022-12-18T04:50:33;13.93;;;4.17;;
23728;SDS011;12045;60.214;24.724;2022-12-18T04:53:01;10.43;;;3.80;;
23728;SDS011;12045;60.214;24.724;2022-12-18T04:55:28;9.70;;;3.60;;
23728;SDS011;12045;60.214;24.724;2022-12-18T04:57:56;2.43;;;1.77;;
23728;SDS011;12045;60.214;24.724;2022-12-18T05:00:24;9.87;;;3.73;;
23728;SDS011;12045;60.214;24.724;2022-12-18T05:02:51;12.23;;;4.10;;
23728;SDS011;12045;60.214;24.724;2022-12-18T05:05:18;6.63;;;2.43;;
23728;SDS011;12045;60.214;24.724;2022-12-18T05:07:46;10.47;;;4.07;;
23728;SDS011;12045;60.214;24.724;2022-12-18T05:10:13;11.87;;;3.30;;
23728;SDS011;12045;60.214;24.724;2022-12-18T05:12:41;6.93;;;3.70;;
23728;SDS011;12045;60.214;24.724;2022-12-18T05:15:30;7.43;;;3.07;;
23728;SDS011;12045;60.214;24.724;2022-12-18T05:17:59;10.23;;;3.30;;
23728;SDS011;12045;60.214;24.724;2022-12-18T05:20:27;11.60;;;3.90;;
23728;SDS011;12045;60.214;24.724;2022-12-18T05:22:55;14.47;;;4.27;;
23728;SDS011;12045;60.214;24.724;2022-12-18T05:25:23;10.77;;;3.50;;
23728;SDS011;12045;60.214;24.724;2022-12-18T05:27:50;13.00;;;4.23;;
23728;SDS011;12045;60.214;24.724;2022-12-18T05:30:18;7.83;;;3.07;;
23728;SDS011;12045;60.214;24.724;2022-12-18T05:32:46;10.30;;;3.57;;
23728;SDS011;12045;60.214;24.724;2022-12-18T05:35:13;13.77;;;4.07;;
23728;SDS011;12045;60.214;24.724;2022-12-18T05:37:40;8.63;;;3.30;;
23728;SDS011;12045;60.214;24.724;2022-12-18T05:40:09;7.23;;;3.17;;
23728;SDS011;12045;60.214;24.724;2022-12-18T05:42:38;13.47;;;4.20;;
23728;SDS011;12045;60.214;24.724;2022-12-18T05:45:05;12.03;;;3.73;;
23728;SDS011;12045;60.214;24.724;2022-12-18T05:47:33;13.20;;;3.97;;
23728;SDS011;12045;60.214;24.724;2022-12-18T05:50:01;16.07;;;3.83;;
23728;SDS011;12045;60.214;24.724;2022-12-18T05:52:29;12.60;;;3.67;;
23728;SDS011;12045;60.214;24.724;2022-12-18T05:54:57;9.90;;;3.37;;
23728;SDS011;12045;60.214;24.724;2022-12-18T05:57:25;12.07;;;3.50;;
23728;SDS011;12045;60.214;24.724;2022-12-18T05:59:53;17.20;;;4.20;;
23728;SDS011;12045;60.214;24.724;2022-12-18T06:02:20;14.27;;;4.33;;
23728;SDS011;12045;60.214;24.724;2022-12-18T06:04:48;12.00;;;4.00;;
23728;SDS011;12045;60.214;24.724;2022-12-18T06:07:15;12.80;;;4.20;;
23728;SDS011;12045;60.214;24.724;2022-12-18T06:09:43;19.80;;;4.83;;
23728;SDS011;12045;60.214;24.724;2022-12-18T06:12:10;16.17;;;4.43;;
23728;SDS011;12045;60.214;24.724;2022-12-18T06:14:38;8.80;;;3.53;;
23728;SDS011;12045;60.214;24.724;2022-12-18T06:17:05;14.53;;;3.97;;
23728;SDS011;12045;60.214;24.724;2022-12-18T06:19:33;13.57;;;4.23;;
23728;SDS011;12045;60.214;24.724;2022-12-18T06:22:01;15.80;;;4.20;;
23728;SDS011;12045;60.214;24.724;2022-12-18T06:24:28;13.17;;;4.40;;
23728;SDS011;12045;60.214;24.724;2022-12-18T06:26:56;23.73;;;4.40;;
23728;SDS011;12045;60.214;24.724;2022-12-18T06:29:24;14.03;;;4.03;;
23728;SDS011;12045;60.214;24.724;2022-12-18T06:31:51;15.23;;;4.23;;
23728;SDS011;12045;60.214;24.724;2022-12-18T06:34:19;12.20;;;3.93;;
23728;SDS011;12045;60.214;24.724;2022-12-18T06:36:46;14.63;;;4.17;;
23728;SDS011;12045;60.214;24.724;2022-12-18T06:39:14;14.17;;;4.20;;
23728;SDS011;12045;60.214;24.724;2022-12-18T06:41:41;11.40;;;3.50;;
23728;SDS011;12045;60.214;24.724;2022-12-18T06:44:10;16.47;;;4.33;;
23728;SDS011;12045;60.214;24.724;2022-12-18T06:46:38;9.77;;;3.63;;
23728;SDS011;12045;60.214;24.724;2022-12-18T06:49:07;15.70;;;4.30;;
23728;SDS011;12045;60.214;24.724;2022-12-18T06:51:35;13.30;;;4.70;;
23728;SDS011;12045;60.214;24.724;2022-12-18T06:54:03;13.77;;;4.30;;
23728;SDS011;12045;60.214;24.724;2022-12-18T06:56:31;13.00;;;3.93;;
23728;SDS011;12045;60.214;24.724;2022-12-18T06:58:58;10.00;;;3.63;;
23728;SDS011;12045;60.214;24.724;2022-12-18T07:01:26;14.50;;;4.70;;
23728;SDS011;12045;60.214;24.724;2022-12-18T07:03:54;19.63;;;5.10;;
23728;SDS011;12045;60.214;24.724;2022-12-18T07:06:23;11.27;;;4.17;;
23728;SDS011;12045;60.214;24.724;2022-12-18T07:08:53;16.20;;;4.30;;
23728;SDS011;12045;60.214;24.724;2022-12-18T07:11:20;17.83;;;4.40;;
23728;SDS011;12045;60.214;24.724;2022-12-18T07:13:48;10.67;;;2.87;;
23728;SDS011;12045;60.214;24.724;2022-12-18T07:16:17;14.00;;;4.10;;
23728;SDS011;12045;60.214;24.724;2022-12-18T07:18:50;21.90;;;4.63;;
23728;SDS011;12045;60.214;24.724;2022-12-18T07:21:18;19.00;;;4.13;;
23728;SDS011;12045;60.214;24.724;2022-12-18T07:23:46;11.17;;;3.53;;
23728;SDS011;12045;60.214;24.724;2022-12-18T07:26:16;13.80;;;4.27;;
23728;SDS011;12045;60.214;24.724;2022-12-18T07:28:44;11.10;;;3.70;;
23728;SDS011;12045;60.214;24.724;2022-12-18T07:31:17;6.93;;;2.93;;
23728;SDS011;12045;60.214;24.724;2022-12-18T07:33:47;10.50;;;3.53;;
23728;SDS011;12045;60.214;24.724;2022-12-18T07:36:15;5.30;;;2.27;;
23728;SDS011;12045;60.214;24.724;2022-12-18T07:38:43;11.17;;;3.67;;
23728;SDS011;12045;60.214;24.724;2022-12-18T07:41:14;7.00;;;2.33;;
23728;SDS011;12045;60.214;24.724;2022-12-18T07:43:42;11.33;;;4.00;;
23728;SDS011;12045;60.214;24.724;2022-12-18T07:46:10;16.40;;;4.40;;
23728;SDS011;12045;60.214;24.724;2022-12-18T07:48:41;14.13;;;4.27;;
23728;SDS011;12045;60.214;24.724;2022-12-18T07:51:15;8.07;;;3.57;;
23728;SDS011;12045;60.214;24.724;2022-12-18T07:53:44;15.30;;;4.07;;
23728;SDS011;12045;60.214;24.724;2022-12-18T07:56:11;12.03;;;4.20;;
23728;SDS011;12045;60.214;24.724;2022-12-18T07:58:57;13.67;;;4.20;;
23728;SDS011;12045;60.214;24.724;2022-12-18T08:01:26;17.03;;;4.63;;
23728;SDS011;12045;60.214;24.724;2022-12-18T08:03:54;14.87;;;4.20;;
23728;SDS011;12045;60.214;24.724;2022-12-18T08:06:21;17.53;;;4.80;;
23728;SDS011;12045;60.214;24.724;2022-12-18T08:08:53;16.73;;;4.57;;
23728;SDS011;12045;60.214;24.724;2022-12-18T08:11:22;19.27;;;4.30;;
23728;SDS011;12045;60.214;24.724;2022-12-18T08:13:51;9.80;;;3.23;;
23728;SDS011;12045;60.214;24.724;2022-12-18T08:16:20;15.20;;;4.90;;
23728;SDS011;12045;60.214;24.724;2022-12-18T08:18:48;11.57;;;4.23;;
23728;SDS011;12045;60.214;24.724;2022-12-18T08:21:19;15.03;;;4.73;;
23728;SDS011;12045;60.214;24.724;2022-12-18T08:23:50;12.57;;;4.60;;
23728;SDS011;12045;60.214;24.724;2022-12-18T08:26:18;13.00;;;4.30;;
23728;SDS011;12045;60.214;24.724;2022-12-18T08:28:47;18.93;;;5.40;;
23728;SDS011;12045;60.214;24.724;2022-12-18T08:31:16;18.90;;;4.40;;
23728;SDS011;12045;60.214;24.724;2022-12-18T08:33:45;20.93;;;5.07;;
23728;SDS011;12045;60.214;24.724;2022-12-18T08:36:15;13.47;;;4.87;;
23728;SDS011;12045;60.214;24.724;2022-12-18T08:38:43;15.03;;;4.03;;
23728;SDS011;12045;60.214;24.724;2022-12-18T08:41:11;16.33;;;4.87;;
23728;SDS011;12045;60.214;24.724;2022-12-18T08:43:40;14.97;;;5.00;;
23728;SDS011;12045;60.214;24.724;2022-12-18T08:46:26;15.20;;;5.27;;
23728;SDS011;12045;60.214;24.724;2022-12-18T08:48:59;16.87;;;4.93;;
23728;SDS011;12045;60.214;24.724;2022-12-18T08:51:26;16.63;;;5.30;;
23728;SDS011;12045;60.214;24.724;2022-12-18T08:53:54;19.00;;;5.57;;
23728;SDS011;12045;60.214;24.724;2022-12-18T08:56:21;18.40;;;5.70;;
23728;SDS011;12045;60.214;24.724;2022-12-18T08:58:51;15.33;;;6.00;;
23728;SDS011;12045;60.214;24.724;2022-12-18T09:01:20;15.00;;;5.33;;
23728;SDS011;12045;60.214;24.724;2022-12-18T09:03:48;16.63;;;4.97;;
23728;SDS011;12045;60.214;24.724;2022-12-18T09:06:17;18.97;;;4.97;;
23728;SDS011;12045;60.214;24.724;2022-12-18T09:08:46;12.90;;;4.63;;
23728;SDS011;12045;60.214;24.724;2022-12-18T09:11:15;10.80;;;3.37;;
23728;SDS011;12045;60.214;24.724;2022-12-18T09:13:49;10.43;;;4.30;;
23728;SDS011;12045;60.214;24.724;2022-12-18T09:16:17;16.87;;;4.83;;
23728;SDS011;12045;60.214;24.724;2022-12-18T09:18:45;14.33;;;4.30;;
23728;SDS011;12045;60.214;24.724;2022-12-18T09:21:14;12.73;;;3.67;;
23728;SDS011;12045;60.214;24.724;2022-12-18T09:23:44;10.20;;;3.97;;
23728;SDS011;12045;60.214;24.724;2022-12-18T09:26:15;18.10;;;4.33;;
23728;SDS011;12045;60.214;24.724;2022-12-18T09:28:43;12.67;;;4.27;;
23728;SDS011;12045;60.214;24.724;2022-12-18T09:31:11;9.03;;;4.07;;
23728;SDS011;12045;60.214;24.724;2022-12-18T09:33:43;12.00;;;4.13;;
23728;SDS011;12045;60.214;24.724;2022-12-18T09:36:14;10.67;;;3.33;;
23728;SDS011;12045;60.214;24.724;2022-12-18T09:38:44;18.70;;;4.70;;
23728;SDS011;12045;60.214;24.724;2022-12-18T09:44:18;8.77;;;3.53;;
23728;SDS011;12045;60.214;24.724;2022-12-18T09:47:08;12.03;;;4.40;;
23728;SDS011;12045;60.214;24.724;2022-12-18T09:49:44;10.93;;;3.73;;
23728;SDS011;12045;60.214;24.724;2022-12-18T09:52:35;12.20;;;4.47;;
23728;SDS011;12045;60.214;24.724;2022-12-18T09:58:15;11.93;;;4.10;;
23728;SDS011;12045;60.214;24.724;2022-12-18T10:01:09;11.10;;;3.60;;
23728;SDS011;12045;60.214;24.724;2022-12-18T10:03:38;9.20;;;4.00;;
23728;SDS011;12045;60.214;24.724;2022-12-18T10:28:22;8.17;;;3.10;;
23728;SDS011;12045;60.214;24.724;2022-12-18T10:30:51;12.57;;;3.40;;
23728;SDS011;12045;60.214;24.724;2022-12-18T10:33:20;7.67;;;3.47;;
23728;SDS011;12045;60.214;24.724;2022-12-18T10:35:53;10.10;;;3.00;;
23728;SDS011;12045;60.214;24.724;2022-12-18T10:38:22;7.53;;;2.77;;
23728;SDS011;12045;60.214;24.724;2022-12-18T10:41:05;7.00;;;2.83;;
23728;SDS011;12045;60.214;24.724;2022-12-18T10:46:38;9.07;;;3.20;;
23728;SDS011;12045;60.214;24.724;2022-12-18T10:49:17;9.33;;;3.93;;
23728;SDS011;12045;60.214;24.724;2022-12-18T10:54:39;8.87;;;3.40;;
23728;SDS011;12045;60.214;24.724;2022-12-18T10:57:50;7.00;;;3.70;;
23728;SDS011;12045;60.214;24.724;2022-12-18T11:00:03;8.83;;;3.90;;
23728;SDS011;12045;60.214;24.724;2022-12-18T11:02:48;9.27;;;3.53;;
23728;SDS011;12045;60.214;24.724;2022-12-18T11:05:35;17.93;;;4.30;;
23728;SDS011;12045;60.214;24.724;2022-12-18T11:08:03;7.77;;;4.07;;
23728;SDS011;12045;60.214;24.724;2022-12-18T11:10:32;7.90;;;3.67;;
23728;SDS011;12045;60.214;24.724;2022-12-18T11:13:17;11.50;;;3.50;;
23728;SDS011;12045;60.214;24.724;2022-12-18T11:15:47;11.13;;;4.77;;
23728;SDS011;12045;60.214;24.724;2022-12-18T11:18:20;16.37;;;5.10;;
23728;SDS011;12045;60.214;24.724;2022-12-18T11:21:04;11.73;;;4.67;;
23728;SDS011;12045;60.214;24.724;2022-12-18T11:23:34;12.13;;;3.33;;
23728;SDS011;12045;60.214;24.724;2022-12-18T11:26:04;11.17;;;4.93;;
23728;SDS011;12045;60.214;24.724;2022-12-18T11:28:52;12.20;;;4.90;;
23728;SDS011;12045;60.214;24.724;2022-12-18T11:31:35;12.73;;;4.77;;
23728;SDS011;12045;60.214;24.724;2022-12-18T11:36:58;12.93;;;5.60;;
23728;SDS011;12045;60.214;24.724;2022-12-18T11:39:33;15.87;;;5.43;;
23728;SDS011;12045;60.214;24.724;2022-12-18T11:50:29;16.27;;;5.57;;
23728;SDS011;12045;60.214;24.724;2022-12-18T11:53:10;16.10;;;5.03;;
23728;SDS011;12045;60.214;24.724;2022-12-18T12:03:55;12.33;;;5.03;;
23728;SDS011;12045;60.214;24.724;2022-12-18T12:10:01;11.27;;;5.87;;
23728;SDS011;12045;60.214;24.724;2022-12-18T12:12:49;11.97;;;5.07;;
23728;SDS011;12045;60.214;24.724;2022-12-18T12:32:05;9.77;;;4.53;;
23728;SDS011;12045;60.214;24.724;2022-12-18T12:37:49;18.87;;;4.77;;
23728;SDS011;12045;60.214;24.724;2022-12-18T12:40:32;18.00;;;6.13;;
23728;SDS011;12045;60.214;24.724;2022-12-18T12:43:30;10.43;;;4.33;;
23728;SDS011;12045;60.214;24.724;2022-12-18T12:46:03;11.50;;;3.60;;
23728;SDS011;12045;60.214;24.724;2022-12-18T12:48:41;16.67;;;4.50;;
23728;SDS011;12045;60.214;24.724;2022-12-18T12:53:53;9.50;;;4.03;;
23728;SDS011;12045;60.214;24.724;2022-12-18T12:56:24;9.67;;;3.13;;
23728;SDS011;12045;60.214;24.724;2022-12-18T12:59:25;12.43;;;4.70;;
23728;SDS011;12045;60.214;24.724;2022-12-18T13:05:10;12.87;;;4.87;;
23728;SDS011;12045;60.214;24.724;2022-12-18T13:07:54;11.93;;;3.57;;
23728;SDS011;12045;60.214;24.724;2022-12-18T13:10:28;12.70;;;5.07;;
23728;SDS011;12045;60.214;24.724;2022-12-18T13:15:38;10.00;;;3.80;;
23728;SDS011;12045;60.214;24.724;2022-12-18T13:20:37;13.10;;;5.53;;
23728;SDS011;12045;60.214;24.724;2022-12-18T13:23:25;12.63;;;5.60;;
23728;SDS011;12045;60.214;24.724;2022-12-18T13:34:27;15.77;;;4.40;;
23728;SDS011;12045;60.214;24.724;2022-12-18T13:51:39;13.63;;;5.70;;
23728;SDS011;12045;60.214;24.724;2022-12-18T13:56:44;8.97;;;4.40;;
23728;SDS011;12045;60.214;24.724;2022-12-18T13:59:25;13.70;;;5.53;;
23728;SDS011;12045;60.214;24.724;2022-12-18T14:02:16;13.80;;;5.53;;
23728;SDS011;12045;60.214;24.724;2022-12-18T14:04:49;12.20;;;4.57;;
23728;SDS011;12045;60.214;24.724;2022-12-18T14:07:28;12.93;;;5.50;;
23728;SDS011;12045;60.214;24.724;2022-12-18T14:10:03;8.97;;;5.07;;
23728;SDS011;12045;60.214;24.724;2022-12-18T14:12:51;12.33;;;5.30;;
23728;SDS011;12045;60.214;24.724;2022-12-18T14:15:39;12.57;;;5.10;;
23728;SDS011;12045;60.214;24.724;2022-12-18T14:20:59;12.97;;;5.20;;
23728;SDS011;12045;60.214;24.724;2022-12-18T14:23:38;12.50;;;4.97;;
23728;SDS011;12045;60.214;24.724;2022-12-18T14:34:44;9.67;;;4.53;;
23728;SDS011;12045;60.214;24.724;2022-12-18T14:37:16;12.83;;;5.40;;
23728;SDS011;12045;60.214;24.724;2022-12-18T14:39:54;13.27;;;5.60;;
23728;SDS011;12045;60.214;24.724;2022-12-18T14:42:25;11.43;;;5.47;;
23728;SDS011;12045;60.214;24.724;2022-12-18T14:50:41;16.87;;;6.50;;
23728;SDS011;12045;60.214;24.724;2022-12-18T14:53:19;13.40;;;6.77;;
23728;SDS011;12045;60.214;24.724;2022-12-18T14:55:48;11.77;;;4.47;;
23728;SDS011;12045;60.214;24.724;2022-12-18T14:58:16;16.10;;;6.13;;
23728;SDS011;12045;60.214;24.724;2022-12-18T15:00:46;14.90;;;5.83;;
23728;SDS011;12045;60.214;24.724;2022-12-18T15:03:15;15.60;;;6.47;;
23728;SDS011;12045;60.214;24.724;2022-12-18T15:05:47;15.93;;;6.63;;
23728;SDS011;12045;60.214;24.724;2022-12-18T15:11:02;15.30;;;6.17;;
23728;SDS011;12045;60.214;24.724;2022-12-18T15:13:49;14.87;;;6.07;;
23728;SDS011;12045;60.214;24.724;2022-12-18T15:16:17;10.85;;;4.75;;
23728;SDS011;12045;60.214;24.724;2022-12-18T15:18:45;13.77;;;5.93;;
23728;SDS011;12045;60.214;24.724;2022-12-18T15:21:18;16.03;;;6.40;;
23728;SDS011;12045;60.214;24.724;2022-12-18T15:23:49;13.70;;;6.27;;
23728;SDS011;12045;60.214;24.724;2022-12-18T15:26:19;15.33;;;6.20;;
23728;SDS011;12045;60.214;24.724;2022-12-18T15:28:49;13.93;;;5.97;;
23728;SDS011;12045;60.214;24.724;2022-12-18T15:36:19;17.53;;;6.50;;
23728;SDS011;12045;60.214;24.724;2022-12-18T15:38:53;18.40;;;6.03;;
23728;SDS011;12045;60.214;24.724;2022-12-18T15:41:33;14.47;;;4.93;;
23728;SDS011;12045;60.214;24.724;2022-12-18T15:44:02;13.97;;;5.60;;
23728;SDS011;12045;60.214;24.724;2022-12-18T15:46:48;17.27;;;6.28;;
23728;SDS011;12045;60.214;24.724;2022-12-18T15:49:15;14.18;;;5.80;;
23728;SDS011;12045;60.214;24.724;2022-12-18T15:51:43;11.93;;;5.82;;
23728;SDS011;12045;60.214;24.724;2022-12-18T15:54:13;10.33;;;5.43;;
23728;SDS011;12045;60.214;24.724;2022-12-18T15:56:42;12.27;;;6.45;;
23728;SDS011;12045;60.214;24.724;2022-12-18T15:59:28;13.63;;;5.55;;
23728;SDS011;12045;60.214;24.724;2022-12-18T16:01:56;13.02;;;5.82;;
23728;SDS011;12045;60.214;24.724;2022-12-18T16:04:25;12.43;;;4.57;;
23728;SDS011;12045;60.214;24.724;2022-12-18T16:06:53;13.52;;;5.13;;
23728;SDS011;12045;60.214;24.724;2022-12-18T16:09:40;15.30;;;5.75;;
23728;SDS011;12045;60.214;24.724;2022-12-18T16:12:19;17.47;;;6.80;;
23728;SDS011;12045;60.214;24.724;2022-12-18T16:14:49;11.57;;;5.50;;
23728;SDS011;12045;60.214;24.724;2022-12-18T16:17:17;9.30;;;5.20;;
23728;SDS011;12045;60.214;24.724;2022-12-18T16:19:44;12.27;;;5.65;;
23728;SDS011;12045;60.214;24.724;2022-12-18T16:22:20;11.95;;;5.70;;
23728;SDS011;12045;60.214;24.724;2022-12-18T16:24:49;11.25;;;6.55;;
23728;SDS011;12045;60.214;24.724;2022-12-18T16:27:18;12.37;;;5.90;;
23728;SDS011;12045;60.214;24.724;2022-12-18T16:29:46;13.88;;;5.05;;
23728;SDS011;12045;60.214;24.724;2022-12-18T16:32:15;15.40;;;6.22;;
23728;SDS011;12045;60.214;24.724;2022-12-18T16:34:44;15.27;;;6.68;;
23728;SDS011;12045;60.214;24.724;2022-12-18T16:37:13;8.87;;;5.50;;
23728;SDS011;12045;60.214;24.724;2022-12-18T16:39:42;13.25;;;4.68;;
23728;SDS011;12045;60.214;24.724;2022-12-18T16:42:14;13.32;;;5.10;;
23728;SDS011;12045;60.214;24.724;2022-12-18T16:44:46;10.18;;;5.25;;
23728;SDS011;12045;60.214;24.724;2022-12-18T16:47:15;10.75;;;4.22;;
23728;SDS011;12045;60.214;24.724;2022-12-18T16:49:44;13.70;;;5.00;;
23728;SDS011;12045;60.214;24.724;2022-12-18T16:52:12;11.07;;;5.40;;
23728;SDS011;12045;60.214;24.724;2022-12-18T16:54:40;14.13;;;4.85;;
23728;SDS011;12045;60.214;24.724;2022-12-18T16:57:08;9.23;;;4.05;;
23728;SDS011;12045;60.214;24.724;2022-12-18T16:59:38;10.57;;;4.40;;
23728;SDS011;12045;60.214;24.724;2022-12-18T17:02:10;9.07;;;4.15;;
23728;SDS011;12045;60.214;24.724;2022-12-18T17:04:42;9.80;;;4.07;;
23728;SDS011;12045;60.214;24.724;2022-12-18T17:07:10;10.40;;;4.20;;
23728;SDS011;12045;60.214;24.724;2022-12-18T17:09:38;9.40;;;3.70;;
23728;SDS011;12045;60.214;24.724;2022-12-18T17:12:06;13.30;;;3.88;;
23728;SDS011;12045;60.214;24.724;2022-12-18T17:14:34;7.35;;;3.75;;
23728;SDS011;12045;60.214;24.724;2022-12-18T17:17:02;7.50;;;4.00;;
23728;SDS011;12045;60.214;24.724;2022-12-18T17:19:48;10.10;;;3.87;;
23728;SDS011;12045;60.214;24.724;2022-12-18T17:22:17;9.98;;;4.10;;
23728;SDS011;12045;60.214;24.724;2022-12-18T17:24:45;7.83;;;4.03;;
23728;SDS011;12045;60.214;24.724;2022-12-18T17:27:13;8.75;;;3.88;;
23728;SDS011;12045;60.214;24.724;2022-12-18T17:29:41;10.67;;;4.23;;
23728;SDS011;12045;60.214;24.724;2022-12-18T17:32:14;7.43;;;3.87;;
23728;SDS011;12045;60.214;24.724;2022-12-18T17:34:42;16.63;;;5.67;;
23728;SDS011;12045;60.214;24.724;2022-12-18T17:37:10;6.70;;;3.50;;
23728;SDS011;12045;60.214;24.724;2022-12-18T17:39:37;8.30;;;3.50;;
23728;SDS011;12045;60.214;24.724;2022-12-18T17:42:05;11.83;;;4.50;;
23728;SDS011;12045;60.214;24.724;2022-12-18T17:44:35;8.63;;;4.13;;
23728;SDS011;12045;60.214;24.724;2022-12-18T17:47:02;11.35;;;4.25;;